Time;durP1;ratioP1;P1;durP2;ratioP2;P2;SDS_P1;SDS_P2;PMS_P1;PMS_P2;Temp;Humidity;BMP_temperature;BMP_pressure;BME280_temperature;BME280_humidity;BME280_pressure;Samples;Min_cycle;Max_cycle;Signal;HPM_P1;HPM_P2
2021/07/14 00:00:30;;;;;;;25.70;20.50;;;;;;;24.51;60.88;97853.00;4942799;29;20039;-75
2021/07/14 00:02:56;;;;;;;25.75;20.63;;;;;;;24.51;60.82;97850.22;4952939;29;20055;-75
2021/07/14 00:05:22;;;;;;;26.38;21.08;;;;;;;24.50;60.76;97847.81;4952918;29;20031;-74
2021/07/14 00:07:48;;;;;;;29.90;21.65;;;;;;;24.48;60.70;97841.81;4953016;29;20027;-75
2021/07/14 00:10:21;;;;;;;26.55;21.23;;;;;;;24.45;60.86;97839.84;4952755;29;20023;-76
2021/07/14 00:13:01;;;;;;;30.42;21.13;;;;;;;24.45;60.73;97837.03;4952321;29;20500;-75
2021/07/14 00:23:13;;;;;;;24.17;19.95;;;;;;;24.40;61.14;97841.06;4952691;29;20043;-75
2021/07/14 00:25:39;;;;;;;26.98;19.17;;;;;;;24.38;61.18;97840.66;4952410;29;20031;-75
2021/07/14 00:28:05;;;;;;;25.00;20.15;;;;;;;24.34;60.90;97840.66;4952895;29;20391;-76
2021/07/14 00:30:31;;;;;;;26.23;20.05;;;;;;;24.35;61.23;97841.47;4952533;29;20023;-75
2021/07/14 00:32:57;;;;;;;24.85;19.67;;;;;;;24.32;61.04;97847.88;4952324;29;20035;-75
2021/07/14 00:35:22;;;;;;;26.40;20.38;;;;;;;24.30;61.19;97842.66;4952267;29;20023;-75
2021/07/14 00:37:48;;;;;;;25.83;20.35;;;;;;;24.30;61.06;97842.66;4952452;29;20038;-75
2021/07/14 00:40:14;;;;;;;24.05;20.73;;;;;;;24.28;61.07;97839.47;4936970;29;20831;-76
2021/07/14 00:42:40;;;;;;;26.70;20.88;;;;;;;24.27;61.22;97837.06;4947293;29;20024;-75
2021/07/14 00:45:07;;;;;;;24.27;20.05;;;;;;;24.27;61.03;97848.28;4937114;29;20054;-75
2021/07/14 00:47:35;;;;;;;25.63;19.67;;;;;;;24.25;61.07;97847.88;4937195;29;20034;-75
2021/07/14 00:50:03;;;;;;;25.25;19.70;;;;;;;24.22;61.31;97850.28;4936988;29;20036;-74
2021/07/14 00:52:28;;;;;;;24.92;20.42;;;;;;;24.20;61.21;97847.09;4936922;29;20032;-74
2021/07/14 00:54:56;;;;;;;24.90;20.08;;;;;;;24.19;61.23;97855.91;4936493;29;20489;-75
2021/07/14 00:57:25;;;;;;;29.53;19.40;;;;;;;24.19;61.04;97861.50;4937244;29;20024;-75
2021/07/14 00:59:51;;;;;;;26.13;20.45;;;;;;;24.16;61.34;97860.31;4936737;29;20016;-75
2021/07/14 01:02:16;;;;;;;28.17;20.48;;;;;;;24.16;61.40;97865.13;4936636;29;20082;-74
2021/07/14 01:04:47;;;;;;;24.02;19.90;;;;;;;24.14;61.38;97862.72;4951144;29;20174;-74
2021/07/14 01:07:40;;;;;;;25.30;20.25;;;;;;;24.12;61.08;97865.09;4936221;29;20059;-75
2021/07/14 01:10:27;;;;;;;26.17;20.05;;;;;;;24.08;61.31;97856.72;4936859;29;20039;-74
2021/07/14 01:13:07;;;;;;;27.42;20.00;;;;;;;24.05;61.09;97863.13;4936743;29;20032;-75
2021/07/14 01:15:37;;;;;;;;;;;;;;;24.04;61.11;97863.53;4936941;29;20039;-75
2021/07/14 01:18:21;;;;;;;25.80;20.98;;;;;;;24.01;61.39;97858.75;4936359;29;19922;-75
2021/07/14 01:21:26;;;;;;;25.40;20.25;;;;;;;23.97;61.76;97852.31;4936403;29;20031;-74
2021/07/14 01:24:15;;;;;;;26.70;21.75;;;;;;;23.93;61.33;97855.91;4933456;29;20123;-75
2021/07/14 01:26:58;;;;;;;28.55;21.98;;;;;;;23.88;61.40;97853.50;4935205;29;20114;-75
2021/07/14 01:29:25;;;;;;;27.52;22.25;;;;;;;23.87;61.76;97856.69;4934597;29;20106;-75
2021/07/14 01:31:52;;;;;;;27.38;22.23;;;;;;;23.84;61.67;97860.31;4936134;29;20477;-74
2021/07/14 01:34:21;;;;;;;32.10;22.42;;;;;;;23.82;61.83;97859.91;4934875;29;20075;-75
2021/07/14 01:36:50;;;;;;;29.27;23.75;;;;;;;23.83;61.91;97859.50;4935226;29;20027;-75
2021/07/14 01:39:18;;;;;;;31.27;23.97;;;;;;;23.79;62.06;97856.72;4939647;29;20028;-75
2021/07/14 01:41:46;;;;;;;32.83;24.58;;;;;;;23.79;62.09;97853.91;4937791;29;20760;-74
2021/07/14 01:44:13;;;;;;;33.83;25.63;;;;;;;23.77;61.89;97845.13;4925591;29;20544;-75
2021/07/14 01:46:40;;;;;;;36.30;25.85;;;;;;;23.77;62.36;97859.13;4934607;29;20044;-74
2021/07/14 01:49:14;;;;;;;33.45;25.98;;;;;;;23.75;62.21;97855.91;4927003;29;20044;-75
2021/07/14 01:51:44;;;;;;;35.13;25.52;;;;;;;23.76;62.25;97851.91;4933295;29;20036;-75
2021/07/14 01:54:13;;;;;;;32.80;24.75;;;;;;;23.74;62.43;97851.53;4934810;29;20469;-75
2021/07/14 01:56:39;;;;;;;30.48;24.15;;;;;;;23.74;62.40;97847.91;4934907;29;20481;-75
2021/07/14 01:59:06;;;;;;;34.63;23.50;;;;;;;23.69;62.27;97843.50;4935239;29;20028;-75
2021/07/14 02:01:35;;;;;;;31.60;23.70;;;;;;;23.66;62.35;97847.13;4934812;29;20564;-75
2021/07/14 02:06:47;;;;;;;31.15;22.30;;;;;;;23.60;62.59;97829.09;4936731;29;20054;-75
2021/07/14 02:09:13;;;;;;;29.25;21.95;;;;;;;23.55;62.51;97827.53;4935891;29;20031;-74
2021/07/14 02:11:43;;;;;;;28.67;21.23;;;;;;;23.51;62.69;97826.72;4934759;29;20064;-76
2021/07/14 02:14:10;;;;;;;30.30;22.00;;;;;;;23.46;62.57;97833.50;4934437;29;20031;-75
2021/07/14 02:16:37;;;;;;;25.08;20.48;;;;;;;23.39;62.68;97836.31;4937112;29;20042;-74
2021/07/14 02:19:04;;;;;;;29.27;20.45;;;;;;;23.38;62.69;97845.91;4934835;29;20023;-74
2021/07/14 02:21:30;;;;;;;27.52;20.95;;;;;;;23.37;62.80;97833.09;4937139;29;20095;-75
2021/07/14 02:23:55;;;;;;;26.92;21.25;;;;;;;23.36;62.76;97836.28;4934242;29;20027;-75
2021/07/14 02:26:20;;;;;;;30.77;21.63;;;;;;;23.38;62.73;97850.69;4919435;29;20118;-75
2021/07/14 02:28:46;;;;;;;25.40;19.27;;;;;;;23.37;62.79;97855.50;4936017;29;20468;-75
2021/07/14 02:31:11;;;;;;;27.65;20.27;;;;;;;23.37;62.44;97855.50;4935661;29;20023;-74
2021/07/14 02:33:37;;;;;;;27.90;19.95;;;;;;;23.39;62.83;97855.88;4938107;29;20027;-75
2021/07/14 02:36:06;;;;;;;26.27;19.70;;;;;;;23.40;62.70;97853.88;4934105;29;20110;-76
2021/07/14 02:38:38;;;;;;;24.42;19.42;;;;;;;23.39;62.79;97850.28;4936165;29;20472;-76
2021/07/14 02:41:08;;;;;;;27.27;20.15;;;;;;;23.42;62.61;97854.28;4934369;29;20031;-76
2021/07/14 02:43:37;;;;;;;28.27;19.33;;;;;;;23.39;62.67;97850.28;4933816;29;20385;-76
2021/07/14 02:46:08;;;;;;;25.97;19.13;;;;;;;23.40;62.65;97842.69;4933679;29;20504;-76
2021/07/14 02:48:34;;;;;;;26.67;19.35;;;;;;;23.38;62.55;97854.28;4935605;29;20500;-75
2021/07/14 02:51:01;;;;;;;27.13;20.13;;;;;;;23.38;62.61;97850.69;4934284;29;20477;-76
2021/07/14 02:53:30;;;;;;;26.42;19.88;;;;;;;23.40;62.45;97845.50;4934092;29;20476;-75
2021/07/14 02:56:02;;;;;;;26.42;19.25;;;;;;;23.42;62.56;97855.09;4933937;29;20042;-76
2021/07/14 02:58:30;;;;;;;25.45;19.25;;;;;;;23.41;62.32;97855.47;4934091;29;20440;-76
2021/07/14 03:00:57;;;;;;;24.63;19.17;;;;;;;23.38;62.24;97859.88;4933840;29;20020;-76
2021/07/14 03:03:23;;;;;;;26.58;19.00;;;;;;;23.38;62.37;97859.88;4932743;29;20061;-76
2021/07/14 03:05:55;;;;;;;24.55;19.33;;;;;;;23.37;62.42;97865.88;4933558;29;20030;-76
2021/07/14 03:08:24;;;;;;;28.63;20.25;;;;;;;23.37;62.63;97863.06;4935024;29;20046;-76
2021/07/14 03:10:55;;;;;;;26.02;19.05;;;;;;;23.36;62.42;97867.06;4933742;29;20024;-76
2021/07/14 03:13:21;;;;;;;25.40;19.52;;;;;;;23.37;62.37;97868.66;4932939;29;20034;-76
2021/07/14 03:15:47;;;;;;;25.33;19.65;;;;;;;23.35;62.60;97855.09;4937034;29;20031;-75
2021/07/14 03:18:14;;;;;;;27.23;19.58;;;;;;;23.38;62.49;97859.06;4933499;29;20075;-75
2021/07/14 03:20:40;;;;;;;28.67;20.17;;;;;;;23.38;62.54;97859.88;4933637;29;20034;-76
2021/07/14 03:23:07;;;;;;;30.77;19.10;;;;;;;23.40;62.73;97863.09;4922538;29;20024;-76
2021/07/14 03:25:32;;;;;;;25.92;20.42;;;;;;;23.41;62.61;97863.88;4933018;29;20040;-76
2021/07/14 03:27:59;;;;;;;27.05;19.80;;;;;;;23.44;62.75;97871.47;4935627;29;20104;-75
2021/07/14 03:30:26;;;;;;;27.40;20.13;;;;;;;23.47;62.83;97862.28;4935224;29;20039;-76
2021/07/14 03:32:51;;;;;;;25.45;19.98;;;;;;;23.49;62.63;97862.69;4936120;29;20031;-76
2021/07/14 03:35:17;;;;;;;32.58;20.65;;;;;;;23.53;62.90;97860.69;4931304;29;20036;-76
2021/07/14 03:37:45;;;;;;;27.02;19.85;;;;;;;23.54;62.95;97864.28;4933126;28;20039;-76
2021/07/14 03:40:12;;;;;;;27.92;19.67;;;;;;;23.56;62.88;97856.28;4933289;29;20028;-76
2021/07/14 03:42:39;;;;;;;27.60;20.40;;;;;;;23.56;62.96;97867.50;4919379;29;20491;-76
2021/07/14 03:45:06;;;;;;;28.25;20.25;;;;;;;23.56;62.86;97861.88;4932553;29;20067;-75
2021/07/14 03:47:33;;;;;;;31.27;19.77;;;;;;;23.58;63.04;97859.50;4934978;29;20507;-76
2021/07/14 03:49:58;;;;;;;26.88;20.55;;;;;;;23.62;62.80;97855.53;4934798;29;20035;-76
2021/07/14 03:52:25;;;;;;;29.92;20.73;;;;;;;23.64;63.07;97850.28;4933045;29;20472;-76
2021/07/14 03:54:51;;;;;;;27.85;19.20;;;;;;;23.67;62.83;97843.13;4933620;29;20063;-76
2021/07/14 03:57:17;;;;;;;27.50;20.23;;;;;;;23.67;63.04;97842.28;4934295;29;20039;-76
2021/07/14 03:59:42;;;;;;;31.63;21.58;;;;;;;23.68;63.28;97836.31;4933858;29;20031;-76
2021/07/14 04:02:12;;;;;;;33.25;22.33;;;;;;;23.69;63.11;97837.91;4934272;29;20024;-76
2021/07/14 04:04:37;;;;;;;30.00;21.55;;;;;;;23.71;63.24;97841.13;4945125;29;20472;-76
2021/07/14 04:07:09;;;;;;;30.10;21.98;;;;;;;23.72;63.23;97839.09;4950695;29;20082;-76
2021/07/14 04:09:35;;;;;;;27.38;21.20;;;;;;;23.77;63.42;97839.53;4953189;29;20576;-76
2021/07/14 04:12:01;;;;;;;32.42;21.40;;;;;;;23.78;63.24;97838.31;4953263;29;20031;-76
2021/07/14 04:14:29;;;;;;;28.02;20.50;;;;;;;23.85;63.29;97836.69;4952421;28;20385;-75
2021/07/14 04:16:55;;;;;;;29.30;21.48;;;;;;;23.91;63.41;97846.28;4938716;29;20023;-74
2021/07/14 04:19:20;;;;;;;30.52;20.98;;;;;;;23.97;63.53;97844.69;4933069;29;20027;-75
2021/07/14 04:21:46;;;;;;;26.35;18.52;;;;;;;24.04;63.22;97846.75;4932566;29;20075;-75
2021/07/14 04:24:12;;;;;;;28.05;19.42;;;;;;;24.08;63.32;97833.50;4926111;29;20071;-75
2021/07/14 04:26:38;;;;;;;28.10;19.05;;;;;;;24.12;63.46;97828.69;4932386;29;20388;-75
2021/07/14 04:29:04;;;;;;;29.05;20.50;;;;;;;24.15;63.29;97827.88;4933085;29;20086;-75
2021/07/14 04:31:34;;;;;;;25.73;19.33;;;;;;;24.18;63.11;97823.50;4932530;29;20079;-75
2021/07/14 04:34:00;;;;;;;23.83;18.13;;;;;;;24.22;63.41;97815.88;4924739;29;20487;-75
2021/07/14 04:36:26;;;;;;;23.58;18.52;;;;;;;24.27;63.28;97818.25;4931591;29;20451;-75
2021/07/14 04:38:51;;;;;;;26.95;20.38;;;;;;;24.31;63.38;97815.47;4932708;29;20032;-75
2021/07/14 04:41:17;;;;;;;28.23;20.60;;;;;;;24.31;63.23;97819.03;4932506;29;20024;-75
2021/07/14 04:43:42;;;;;;;31.00;20.30;;;;;;;24.34;63.28;97817.44;4933488;29;20031;-76
2021/07/14 04:46:08;;;;;;;30.58;19.27;;;;;;;24.37;62.64;97814.63;4920099;29;20043;-75
2021/07/14 04:48:33;;;;;;;25.52;19.17;;;;;;;24.42;62.70;97809.81;4933132;29;20042;-75
2021/07/14 04:50:59;;;;;;;26.13;18.67;;;;;;;24.44;63.08;97799.81;4933495;29;20028;-75
2021/07/14 04:53:24;;;;;;;23.88;18.35;;;;;;;24.45;62.70;97795.00;4933380;29;20127;-74
2021/07/14 04:55:49;;;;;;;22.63;17.85;;;;;;;24.46;62.82;97794.56;4931964;29;20071;-75
2021/07/14 04:58:15;;;;;;;26.13;18.63;;;;;;;24.48;62.75;97788.56;4932526;29;20020;-75
2021/07/14 05:00:40;;;;;;;22.95;17.70;;;;;;;24.50;62.80;97786.16;4932330;29;20024;-75
2021/07/14 05:03:06;;;;;;;23.35;17.38;;;;;;;24.51;62.35;97776.56;4932205;29;20078;-75
2021/07/14 05:05:31;;;;;;;25.42;18.38;;;;;;;24.55;62.64;97785.75;4931528;29;20024;-75
2021/07/14 05:07:58;;;;;;;26.90;17.70;;;;;;;24.57;62.42;97777.72;4932242;29;20114;-75
2021/07/14 05:10:31;;;;;;;22.27;16.83;;;;;;;24.61;62.72;97772.91;4929612;29;20039;-75
2021/07/14 05:12:58;;;;;;;23.60;17.80;;;;;;;24.64;62.33;97776.88;4931498;29;20119;-75
2021/07/14 05:15:24;;;;;;;22.88;18.25;;;;;;;24.64;62.37;97774.91;4929259;29;20162;-75
2021/07/14 05:17:50;;;;;;;25.45;18.35;;;;;;;24.65;62.39;97770.88;4931422;29;20024;-76
2021/07/14 05:20:17;;;;;;;22.88;17.15;;;;;;;24.73;62.18;97776.47;4931820;29;20042;-75
2021/07/14 05:22:43;;;;;;;22.40;17.20;;;;;;;24.76;62.47;97778.44;4931782;29;20019;-75
2021/07/14 05:25:08;;;;;;;23.48;17.45;;;;;;;24.81;62.11;97784.44;4931389;29;21763;-75
2021/07/14 05:27:34;;;;;;;23.42;16.85;;;;;;;24.87;62.42;97795.22;4933643;29;20024;-75
2021/07/14 05:30:00;;;;;;;25.50;17.55;;;;;;;24.93;62.62;97802.00;4934879;29;20099;-74
2021/07/14 05:32:25;;;;;;;23.60;17.90;;;;;;;25.02;62.33;97801.56;4935410;29;20114;-75
2021/07/14 05:34:51;;;;;;;26.05;19.10;;;;;;;25.07;62.31;97807.53;4935118;29;20433;-75
2021/07/14 05:37:16;;;;;;;25.92;18.05;;;;;;;25.15;62.01;97808.28;4935859;29;21277;-75
2021/07/14 05:39:41;;;;;;;22.38;17.85;;;;;;;25.22;62.17;97807.44;4935443;29;21661;-75
2021/07/14 05:42:07;;;;;;;25.73;18.63;;;;;;;25.31;62.01;97812.59;4938228;29;20027;-75
2021/07/14 05:44:33;;;;;;;22.58;18.38;;;;;;;25.38;61.99;97809.75;4935258;29;20115;-75
2021/07/14 05:46:59;;;;;;;23.00;18.77;;;;;;;25.44;61.41;97810.94;4934882;29;20036;-75
2021/07/14 05:49:26;;;;;;;20.98;17.35;;;;;;;25.50;61.80;97819.69;4937094;29;20027;-75
2021/07/14 05:51:51;;;;;;;26.35;17.60;;;;;;;25.55;61.13;97824.88;4935472;29;20023;-75
2021/07/14 05:54:17;;;;;;;22.92;17.77;;;;;;;25.60;61.02;97826.44;4934889;29;20075;-75
2021/07/14 05:56:42;;;;;;;21.67;16.63;;;;;;;25.66;61.16;97828.41;4934868;29;20063;-74
2021/07/14 05:59:08;;;;;;;22.00;17.08;;;;;;;25.70;61.23;97831.97;4935122;29;20032;-75
2021/07/14 06:01:33;;;;;;;23.80;17.33;;;;;;;25.78;60.71;97835.53;4927766;29;20028;-74
2021/07/14 06:04:00;;;;;;;21.85;16.08;;;;;;;25.84;61.08;97831.06;4935043;29;20024;-76
2021/07/14 06:06:25;;;;;;;18.88;16.63;;;;;;;25.90;61.06;97827.78;4924799;29;20139;-76
2021/07/14 06:08:51;;;;;;;23.95;17.38;;;;;;;25.95;60.69;97830.97;4934658;29;20099;-74
2021/07/14 06:11:16;;;;;;;23.50;17.25;;;;;;;26.01;60.49;97829.31;4950197;29;20054;-74
2021/07/14 06:13:42;;;;;;;23.90;18.13;;;;;;;26.04;60.25;97827.66;4953451;29;20067;-74
2021/07/14 06:16:08;;;;;;;22.30;17.65;;;;;;;26.06;60.16;97844.13;4935501;29;20039;-74
2021/07/14 06:18:34;;;;;;;24.95;17.60;;;;;;;26.09;60.18;97835.63;4935920;29;20047;-74
2021/07/14 06:20:59;;;;;;;21.05;16.70;;;;;;;26.14;60.33;97845.66;4936124;29;20476;-74
2021/07/14 06:23:25;;;;;;;23.95;17.45;;;;;;;26.20;59.91;97844.00;4935938;29;20038;-74
2021/07/14 06:25:50;;;;;;;20.45;17.08;;;;;;;26.28;60.19;97851.13;4935521;29;20114;-74
2021/07/14 06:28:16;;;;;;;23.33;17.73;;;;;;;26.36;60.21;97865.91;4935696;29;20035;-74
2021/07/14 06:30:43;;;;;;;26.35;18.13;;;;;;;26.47;59.93;97856.56;4935752;29;20027;-74
2021/07/14 06:33:09;;;;;;;21.67;16.83;;;;;;;26.55;60.07;97861.69;4935775;29;20043;-75
2021/07/14 06:35:34;;;;;;;21.90;17.13;;;;;;;26.66;59.97;97872.03;4935348;29;20040;-74
2021/07/14 06:38:00;;;;;;;20.77;18.25;;;;;;;26.77;59.59;97867.06;4935422;29;20028;-74
2021/07/14 06:40:26;;;;;;;21.77;16.70;;;;;;;26.89;59.24;97868.56;4935839;29;20115;-75
2021/07/14 06:42:51;;;;;;;21.73;17.17;;;;;;;27.01;59.13;97875.63;4935481;29;20034;-75
2021/07/14 06:45:17;;;;;;;23.65;17.27;;;;;;;27.13;59.13;97877.09;4935330;29;20024;-75
2021/07/14 06:47:43;;;;;;;20.63;16.42;;;;;;;27.26;58.96;97880.94;4934675;29;20505;-75
2021/07/14 06:50:11;;;;;;;22.60;17.80;;;;;;;27.38;58.51;97864.69;4935483;29;20024;-75
2021/07/14 06:52:41;;;;;;;23.30;18.23;;;;;;;27.49;58.44;97852.06;4935396;29;20024;-75
2021/07/14 06:55:08;;;;;;;21.52;17.63;;;;;;;27.58;58.21;97853.56;4939895;29;20039;-75
2021/07/14 06:57:34;;;;;;;27.33;18.17;;;;;;;27.67;57.86;97856.63;4945414;29;20059;-74
2021/07/14 06:59:59;;;;;;;21.08;16.70;;;;;;;27.71;57.58;97848.94;4949540;29;20056;-75
2021/07/14 07:02:24;;;;;;;22.30;16.30;;;;;;;27.78;57.37;97850.81;4953981;29;20396;-75
2021/07/14 07:04:50;;;;;;;22.63;17.92;;;;;;;27.84;57.13;97868.03;4953787;29;20035;-75
2021/07/14 07:07:15;;;;;;;22.52;18.63;;;;;;;27.90;57.37;97871.94;4953949;29;20027;-75
2021/07/14 07:09:41;;;;;;;30.73;19.27;;;;;;;27.98;57.01;97864.16;4936535;29;20500;-75
2021/07/14 07:12:07;;;;;;;22.08;16.88;;;;;;;28.04;57.22;97860.44;4938644;29;20038;-74
2021/07/14 07:14:32;;;;;;;21.08;16.77;;;;;;;28.11;56.83;97855.91;4935140;29;20027;-75
2021/07/14 07:16:57;;;;;;;19.60;17.10;;;;;;;28.17;56.94;97854.19;4932901;29;20038;-75
2021/07/14 07:19:23;;;;;;;22.48;16.85;;;;;;;28.25;56.39;97863.34;4934450;29;20027;-75
2021/07/14 07:21:50;;;;;;;20.73;17.45;;;;;;;28.29;56.47;97867.69;4934252;29;20495;-75
2021/07/14 07:24:15;;;;;;;19.92;16.80;;;;;;;28.32;55.87;97866.03;4938586;29;20059;-75
2021/07/14 07:26:41;;;;;;;20.90;17.38;;;;;;;28.36;55.93;97867.56;4923388;29;20215;-75
2021/07/14 07:29:07;;;;;;;22.55;17.38;;;;;;;28.43;55.75;97874.28;4932953;29;20034;-75
2021/07/14 07:31:33;;;;;;;20.10;16.70;;;;;;;28.52;56.01;97872.50;4928091;29;20031;-76
2021/07/14 07:33:58;;;;;;;21.77;17.20;;;;;;;28.60;55.36;97869.53;4932419;29;20043;-79
2021/07/14 07:36:25;;;;;;;21.02;16.83;;;;;;;28.69;55.47;97869.75;4931861;29;20032;-78
2021/07/14 07:38:50;;;;;;;21.52;18.23;;;;;;;28.78;55.35;97863.56;4931327;29;20038;-78
2021/07/14 07:41:18;;;;;;;23.38;17.50;;;;;;;28.84;55.61;97849.72;4932301;29;20119;-79
2021/07/14 07:43:43;;;;;;;21.77;16.98;;;;;;;28.88;55.16;97859.72;4948064;29;20046;-78
2021/07/14 07:46:09;;;;;;;29.60;17.85;;;;;;;28.93;55.02;97864.88;4932223;29;20044;-76
2021/07/14 07:48:35;;;;;;;22.05;17.45;;;;;;;28.98;54.98;97863.53;4931607;29;20028;-78
2021/07/14 07:51:01;;;;;;;21.27;16.52;;;;;;;29.04;54.87;97873.09;4930348;29;20075;-79
2021/07/14 07:53:26;;;;;;;23.70;16.85;;;;;;;29.08;54.87;97876.66;4915180;29;20400;-77
2021/07/14 07:55:54;;;;;;;21.13;16.52;;;;;;;29.13;54.86;97891.47;4937167;29;20036;-77
2021/07/14 07:58:20;;;;;;;22.85;16.92;;;;;;;29.17;54.64;97890.16;4938410;29;20028;-78
2021/07/14 08:00:46;;;;;;;22.10;17.63;;;;;;;29.20;54.86;97892.13;4933225;29;20431;-76
2021/07/14 08:03:11;;;;;;;24.33;18.42;;;;;;;29.23;54.66;97888.41;4933938;29;20064;-77
2021/07/14 08:05:37;;;;;;;20.50;17.73;;;;;;;29.31;54.45;97894.69;4938991;29;20671;-75
2021/07/14 08:08:03;;;;;;;20.70;17.95;;;;;;;29.38;54.03;97905.06;4932420;29;20032;-77
2021/07/14 08:10:28;;;;;;;18.73;16.10;;;;;;;29.47;54.25;97910.13;4931501;29;20030;-76
2021/07/14 08:12:53;;;;;;;22.55;18.05;;;;;;;29.53;53.74;97917.63;4915712;29;20070;-75
2021/07/14 08:15:19;;;;;;;20.50;17.10;;;;;;;29.62;53.98;97930.38;4930652;29;20032;-75
2021/07/14 08:17:45;;;;;;;21.00;16.85;;;;;;;29.67;54.14;97930.63;4935975;29;20412;-74
2021/07/14 08:20:11;;;;;;;22.25;17.50;;;;;;;29.76;53.77;97937.72;4942372;29;20778;-78
2021/07/14 08:22:38;;;;;;;23.85;17.05;;;;;;;29.82;53.94;97942.41;4933179;29;20024;-78
2021/07/14 08:25:09;;;;;;;19.25;16.58;;;;;;;29.87;54.16;97949.56;4931129;29;20028;-76
2021/07/14 08:27:35;;;;;;;19.13;14.85;;;;;;;29.92;53.44;97946.22;4932286;29;20403;-77
2021/07/14 08:30:00;;;;;;;18.20;14.38;;;;;;;29.95;53.07;97942.50;4931274;29;20035;-77
2021/07/14 08:32:27;;;;;;;19.33;15.15;;;;;;;29.99;52.59;97950.94;4932526;29;20040;-76
2021/07/14 08:34:53;;;;;;;17.05;14.50;;;;;;;30.05;52.37;97949.16;4931659;29;20027;-77
2021/07/14 08:37:18;;;;;;;18.23;15.02;;;;;;;30.08;52.10;97958.78;4940389;29;20110;-76
2021/07/14 08:39:44;;;;;;;16.88;14.88;;;;;;;30.12;51.50;97960.31;4935116;29;20472;-77
2021/07/14 08:42:13;;;;;;;18.20;15.52;;;;;;;30.18;51.88;97968.25;4931570;29;20026;-74
2021/07/14 08:44:39;;;;;;;21.33;15.10;;;;;;;30.22;51.81;97964.09;4933151;29;20032;-75
2021/07/14 08:47:07;;;;;;;19.90;15.57;;;;;;;30.22;51.17;97966.13;4932477;29;20052;-79
2021/07/14 08:49:34;;;;;;;18.17;15.95;;;;;;;30.24;51.37;97977.78;4931525;29;20126;-75
2021/07/14 08:52:00;;;;;;;18.88;14.48;;;;;;;30.26;51.11;97984.59;4936051;29;20106;-76
2021/07/14 08:54:25;;;;;;;19.15;15.43;;;;;;;30.27;51.37;97999.53;4931098;29;20111;-75
2021/07/14 08:56:51;;;;;;;18.98;15.15;;;;;;;30.27;50.67;98013.69;4930590;29;20028;-77
2021/07/14 08:59:18;;;;;;;19.10;14.75;;;;;;;30.21;50.53;98029.56;4931120;29;20024;-74
2021/07/14 09:01:45;;;;;;;20.42;14.77;;;;;;;30.13;48.94;98045.91;4918770;29;20127;-72
2021/07/14 09:04:12;;;;;;;15.77;13.93;;;;;;;30.07;49.15;98045.66;4933008;29;20064;-74
2021/07/14 09:06:37;;;;;;;19.80;14.18;;;;;;;30.08;48.82;98043.63;4936218;29;20299;-77
2021/07/14 09:09:03;;;;;;;25.23;17.08;;;;;;;30.09;49.06;98053.69;4933502;29;20138;-74
2021/07/14 09:11:29;;;;;;;23.65;16.50;;;;;;;30.06;49.00;98057.38;4936539;29;20449;-73
2021/07/14 09:13:54;;;;;;;28.58;18.17;;;;;;;30.02;48.89;98068.78;4936221;29;20034;-74
2021/07/14 09:16:37;;;;;;;22.88;16.05;;;;;;;29.86;48.93;98072.34;4934402;29;20072;-75
2021/07/14 09:19:13;;;;;;;21.08;13.15;;;;;;;29.62;49.14;98074.47;4936064;29;20058;-74
2021/07/14 09:21:41;;;;;;;24.08;12.95;;;;;;;29.38;48.98;98077.34;4935920;29;20121;-75
2021/07/14 09:24:24;;;;;;;23.85;12.98;;;;;;;29.15;49.21;98089.44;4937694;29;20499;-74
2021/07/14 09:26:50;;;;;;;23.85;13.10;;;;;;;28.95;49.48;98076.88;4936080;29;20114;-74
2021/07/14 09:29:15;;;;;;;22.50;10.95;;;;;;;28.74;49.42;98077.25;4926033;29;20186;-76
2021/07/14 09:31:45;;;;;;;21.08;11.25;;;;;;;28.59;50.14;98093.59;4925324;29;20483;-75
2021/07/14 09:34:28;;;;;;;18.77;10.25;;;;;;;28.42;50.61;98084.22;4918456;29;20531;-75
2021/07/14 09:37:03;;;;;;;16.23;10.90;;;;;;;28.18;50.89;98079.31;4933315;29;20036;-77
2021/07/14 09:39:30;;;;;;;16.00;11.20;;;;;;;28.09;51.09;98079.00;4940911;29;20028;-75
2021/07/14 09:42:01;;;;;;;11.95;9.50;;;;;;;27.98;51.08;98076.34;4932940;29;20032;-74
2021/07/14 09:44:26;;;;;;;18.00;10.45;;;;;;;27.89;51.41;98085.34;4933600;29;20670;-75
2021/07/14 09:47:16;;;;;;;15.05;10.88;;;;;;;27.87;51.58;98090.59;4933253;29;20054;-74
2021/07/14 09:49:42;;;;;;;13.38;9.70;;;;;;;27.83;51.80;98089.84;4916332;29;20035;-74
2021/07/14 09:52:19;;;;;;;18.08;11.07;;;;;;;27.81;51.95;98083.81;4933295;29;20036;-73
2021/07/14 09:54:44;;;;;;;17.55;11.15;;;;;;;27.80;52.02;98070.97;4915232;29;20023;-76
2021/07/14 09:57:15;;;;;;;13.77;9.07;;;;;;;27.78;52.36;98082.63;4931799;29;20362;-75
2021/07/14 09:59:41;;;;;;;15.25;10.77;;;;;;;27.68;52.66;98068.69;4935076;29;20043;-73
2021/07/14 10:02:10;;;;;;;14.40;11.55;;;;;;;27.59;53.24;98058.72;4942484;29;20090;-74
2021/07/14 10:04:40;;;;;;;21.88;12.02;;;;;;;27.51;53.58;98062.84;4937020;29;20431;-76
2021/07/14 10:07:10;;;;;;;17.35;11.48;;;;;;;27.45;53.73;98053.25;4933417;29;20039;-75
2021/07/14 10:09:36;;;;;;;16.67;11.13;;;;;;;27.35;54.24;98049.31;4933440;29;20043;-75
2021/07/14 10:12:24;;;;;;;16.60;11.63;;;;;;;27.30;54.49;98038.56;4932242;29;20032;-76
2021/07/14 10:14:50;;;;;;;14.63;10.30;;;;;;;27.21;54.56;98032.63;4933313;29;20441;-76
2021/07/14 10:17:34;;;;;;;12.60;8.93;;;;;;;27.03;54.99;98039.22;4939874;29;20024;-76
2021/07/14 10:20:00;;;;;;;16.58;11.05;;;;;;;26.88;55.05;98027.31;4929547;29;20035;-74
2021/07/14 10:22:25;;;;;;;18.10;10.82;;;;;;;26.82;55.41;98007.28;4935672;29;20102;-76
2021/07/14 10:24:51;;;;;;;21.58;11.38;;;;;;;26.75;56.57;98010.94;4935508;29;20031;-76
2021/07/14 10:27:16;;;;;;;16.48;11.60;;;;;;;26.70;56.34;98002.94;4937963;29;20107;-77
2021/07/14 10:29:42;;;;;;;19.75;12.95;;;;;;;26.69;56.78;97987.31;4948732;29;20048;-76
2021/07/14 10:32:09;;;;;;;20.63;11.63;;;;;;;26.63;57.33;97979.72;4953351;29;20383;-76
2021/07/14 10:34:36;;;;;;;12.98;10.30;;;;;;;26.61;58.23;97968.91;4934785;29;20032;-76
2021/07/14 10:37:02;;;;;;;15.52;11.70;;;;;;;26.65;57.60;97974.47;4934914;29;20032;-74
2021/07/14 10:39:29;;;;;;;20.67;12.57;;;;;;;26.73;57.50;97965.53;4935128;29;20032;-76
2021/07/14 10:41:55;;;;;;;20.02;13.50;;;;;;;26.84;58.10;97973.09;4933264;29;20044;-73
2021/07/14 10:44:21;;;;;;;20.58;13.95;;;;;;;26.92;57.94;97971.00;4932465;29;20034;-74
2021/07/14 10:46:47;;;;;;;18.50;13.02;;;;;;;27.00;57.94;97964.91;4930155;29;20052;-74
2021/07/14 10:49:13;;;;;;;17.48;11.68;;;;;;;27.16;58.15;97974.75;4932601;29;20035;-74
2021/07/14 10:51:39;;;;;;;24.95;14.88;;;;;;;27.23;57.88;97985.94;4932710;29;20476;-75
2021/07/14 10:54:09;;;;;;;19.13;13.50;;;;;;;27.34;57.71;97997.88;4933777;29;20453;-75
2021/07/14 10:56:40;;;;;;;19.33;13.30;;;;;;;27.45;57.34;98006.16;4933809;29;20027;-76
2021/07/14 10:59:06;;;;;;;18.15;12.18;;;;;;;27.58;57.38;98002.81;4935881;29;21539;-75
2021/07/14 11:01:52;;;;;;;17.60;12.95;;;;;;;27.79;57.14;98008.16;4945918;29;20031;-74
2021/07/14 11:04:26;;;;;;;18.98;12.88;;;;;;;27.97;57.10;98018.38;4934105;29;20032;-75
2021/07/14 11:06:55;;;;;;;22.45;12.90;;;;;;;28.12;56.92;98032.31;4952526;29;20106;-75
2021/07/14 11:09:37;;;;;;;;;;;;;;;28.25;56.48;98038.16;4935111;29;20035;-75
2021/07/14 11:12:08;;;;;;;20.17;13.10;;;;;;;28.34;55.92;98044.84;4932628;29;20009;-75
2021/07/14 11:14:38;;;;;;;16.77;12.82;;;;;;;28.44;55.88;98048.69;4926952;29;20138;-73
2021/07/14 11:17:04;;;;;;;17.10;12.95;;;;;;;28.50;55.52;98046.22;4932520;29;20028;-72
2021/07/14 11:19:49;;;;;;;19.40;12.70;;;;;;;28.61;55.36;98038.34;4915488;29;20576;-74
2021/07/14 11:22:16;;;;;;;15.18;11.15;;;;;;;28.70;55.00;98032.16;4932602;29;20031;-75
2021/07/14 11:24:46;;;;;;;19.95;12.65;;;;;;;28.84;54.84;98035.97;4913707;29;20028;-73
2021/07/14 11:27:26;;;;;;;18.98;12.45;;;;;;;28.92;54.66;98048.75;4936575;29;20032;-73
2021/07/14 11:30:16;;;;;;;21.08;12.57;;;;;;;28.96;54.57;98052.28;4935356;29;20031;-74